Cape Campbell, New Zealand
Current Conditions -  °F | °C
As of 3:30 AM on Friday 31 Oct 2014 (Local Time) from NZWN Reporting Station
Clear Clear  
Wind Chill: 57°   Ceiling: Unl
Heat Index: 57°   Visibility: 6mi
Dew Point: 46°   Wind: 16mph
Humidity: 67%   Direction: 20°NNE
Pressure: 29.65"   Gusts: NA
Location:  41.72°S, 174.26°E
Report Text: NZWN 301430Z AUTO 02014KT 9999 NCD 14/08 Q1004 NOSIG
Loading
Personal Weather Stations






























Interactive Weather Map
Tropical Storm Tracking
New forecast layout! Learn more

10-Day Weather Forecast

Advertisements
Track Severe Weather on mobile